createdAt,value
2022-10-23T00:02:26.227Z,101005.00
2022-10-23T00:04:59.025Z,101002.00
2022-10-23T00:10:19.659Z,101005.00
2022-10-23T00:12:50.763Z,101012.00
2022-10-23T00:15:22.945Z,101003.00
2022-10-23T00:17:53.487Z,101018.00
2022-10-23T00:20:26.240Z,101011.00
2022-10-23T00:22:56.569Z,101017.00
2022-10-23T00:25:26.620Z,101016.00
2022-10-23T00:27:56.760Z,101010.00
2022-10-23T00:30:26.979Z,101015.00
2022-10-23T00:32:57.225Z,101016.00
2022-10-23T00:35:30.170Z,101012.00
2022-10-23T00:38:00.342Z,101022.00
2022-10-23T00:40:30.712Z,101024.00
2022-10-23T00:43:00.821Z,101033.00
2022-10-23T00:45:34.055Z,101036.00
2022-10-23T00:48:05.684Z,101032.00
2022-10-23T00:50:38.619Z,101034.00
2022-10-23T00:53:09.573Z,101042.00
2022-10-23T00:55:41.357Z,101036.00
2022-10-23T00:58:11.557Z,101036.00
2022-10-23T01:00:49.451Z,101032.00
2022-10-23T01:03:22.609Z,101034.00
2022-10-23T01:06:03.671Z,101032.00
2022-10-23T01:08:41.313Z,101036.00
2022-10-23T01:11:18.642Z,101033.00
2022-10-23T01:14:00.641Z,101028.00
2022-10-23T01:16:42.196Z,101038.00
2022-10-23T01:19:21.060Z,101046.00
2022-10-23T01:22:03.572Z,101040.00
2022-10-23T01:24:49.232Z,101037.00
2022-10-23T01:27:27.957Z,101028.00
2022-10-23T01:30:08.644Z,101030.00
2022-10-23T01:32:48.230Z,101034.00
2022-10-23T01:35:22.240Z,101028.00
2022-10-23T01:37:57.834Z,101025.00
2022-10-23T01:40:33.988Z,101036.00
2022-10-23T01:43:13.629Z,101040.00
2022-10-23T01:45:47.385Z,101033.00
2022-10-23T01:48:22.436Z,101032.00
2022-10-23T01:50:54.249Z,101032.00
2022-10-23T01:53:25.695Z,101033.00
2022-10-23T01:55:58.934Z,101040.00
2022-10-23T01:58:33.821Z,101037.00
2022-10-23T02:01:09.335Z,101040.00
2022-10-23T02:03:42.147Z,101047.00
2022-10-23T02:06:12.523Z,101037.00
2022-10-23T02:08:42.775Z,101038.00
2022-10-23T02:11:16.069Z,101035.00
2022-10-23T02:13:58.518Z,101039.00
2022-10-23T02:16:37.976Z,101028.00
2022-10-23T02:19:20.509Z,101033.00
2022-10-23T02:21:58.094Z,101032.00
2022-10-23T02:24:32.992Z,101025.00
2022-10-23T02:27:06.816Z,101035.00
2022-10-23T02:29:46.275Z,101039.00
2022-10-23T02:32:17.727Z,101036.00
2022-10-23T02:34:48.118Z,101034.00
2022-10-23T02:37:18.747Z,101033.00
2022-10-23T02:39:49.392Z,101032.00
2022-10-23T02:42:25.592Z,101032.00
2022-10-23T02:45:10.539Z,101023.00
2022-10-23T02:47:54.644Z,101033.00
2022-10-23T02:50:32.432Z,101034.00
2022-10-23T02:53:10.392Z,101024.00
2022-10-23T02:55:54.377Z,101030.00
2022-10-23T02:58:31.704Z,101038.00
2022-10-23T03:01:13.682Z,101034.00
2022-10-23T03:03:48.748Z,101046.00
2022-10-23T03:06:19.213Z,101037.00
2022-10-23T03:08:56.591Z,101036.00
2022-10-23T03:11:27.158Z,101025.00
2022-10-23T03:13:57.440Z,101021.00
2022-10-23T03:16:33.292Z,101020.00
2022-10-23T03:19:03.570Z,101029.00
2022-10-23T03:21:33.820Z,101023.00
2022-10-23T03:24:03.869Z,101020.00
2022-10-23T03:26:34.228Z,101012.00
2022-10-23T03:29:04.338Z,101018.00
2022-10-23T03:31:37.030Z,101023.00
2022-10-23T03:34:11.161Z,101031.00
2022-10-23T03:36:41.483Z,101029.00
2022-10-23T03:39:11.658Z,101036.00
2022-10-23T03:41:41.811Z,101031.00
2022-10-23T03:44:12.028Z,101036.00
2022-10-23T03:46:44.860Z,101042.00
2022-10-23T03:49:15.080Z,101032.00
2022-10-23T03:51:52.035Z,101036.00
2022-10-23T03:54:24.749Z,101036.00
2022-10-23T03:56:57.431Z,101039.00
2022-10-23T03:59:28.275Z,101036.00
2022-10-23T04:02:01.052Z,101035.00
2022-10-23T04:04:31.387Z,101032.00
2022-10-23T04:07:01.475Z,101041.00
2022-10-23T04:09:32.127Z,101042.00
2022-10-23T04:12:02.293Z,101039.00
2022-10-23T04:14:32.676Z,101045.00
2022-10-23T04:17:05.394Z,101044.00
2022-10-23T04:19:35.677Z,101049.00
2022-10-23T04:22:05.781Z,101046.00
2022-10-23T04:24:36.026Z,101047.00
2022-10-23T04:27:06.524Z,101048.00
2022-10-23T04:29:36.632Z,101056.00
2022-10-23T04:32:10.477Z,101057.00
2022-10-23T04:34:40.616Z,101054.00
2022-10-23T04:37:10.729Z,101041.00
2022-10-23T04:39:40.983Z,101043.00
2022-10-23T04:42:11.208Z,101039.00
2022-10-23T04:44:41.455Z,101036.00
2022-10-23T04:47:14.328Z,101031.00
2022-10-23T04:49:44.519Z,101033.00
2022-10-23T04:52:14.789Z,101037.00
2022-10-23T04:54:44.895Z,101029.00
2022-10-23T04:57:14.992Z,101044.00
2022-10-23T04:59:45.089Z,101041.00
2022-10-23T05:02:17.861Z,101039.00
2022-10-23T05:04:48.031Z,101034.00
2022-10-23T05:07:18.267Z,101041.00
2022-10-23T05:09:48.539Z,101045.00
2022-10-23T05:12:19.317Z,101044.00
2022-10-23T05:14:49.535Z,101030.00
2022-10-23T05:17:26.992Z,101034.00
2022-10-23T05:20:00.005Z,101038.00
2022-10-23T05:22:35.876Z,101041.00
2022-10-23T05:25:08.154Z,101030.00
2022-10-23T05:27:38.547Z,101031.00
2022-10-23T05:30:10.716Z,101038.00
2022-10-23T05:32:44.218Z,101032.00
2022-10-23T05:35:19.309Z,101036.00
2022-10-23T05:37:50.515Z,101035.00
2022-10-23T05:40:21.497Z,101036.00
2022-10-23T05:42:52.213Z,101039.00
2022-10-23T05:45:22.562Z,101041.00
2022-10-23T05:48:05.621Z,101041.00
2022-10-23T05:50:41.669Z,101051.00
2022-10-23T05:53:13.538Z,101049.00
2022-10-23T05:55:44.024Z,101046.00
2022-10-23T05:58:14.472Z,101046.00
2022-10-23T06:00:44.837Z,101040.00
2022-10-23T06:03:17.734Z,101047.00
2022-10-23T06:05:53.276Z,101051.00
2022-10-23T06:08:24.552Z,101047.00
2022-10-23T06:10:55.100Z,101046.00
2022-10-23T06:13:25.632Z,101048.00
2022-10-23T06:15:56.025Z,101050.00
2022-10-23T06:18:29.152Z,101048.00
2022-10-23T06:20:59.664Z,101047.00
2022-10-23T06:23:30.293Z,101040.00
2022-10-23T06:26:00.687Z,101058.00
2022-10-23T06:28:31.646Z,101048.00
2022-10-23T06:31:01.984Z,101043.00
2022-10-23T06:33:35.022Z,101054.00
2022-10-23T06:36:05.841Z,101051.00
2022-10-23T06:38:40.637Z,101058.00
2022-10-23T06:41:16.294Z,101048.00
2022-10-23T06:43:49.265Z,101045.00
2022-10-23T06:46:20.336Z,101050.00
2022-10-23T06:48:53.937Z,101050.00
2022-10-23T06:51:25.227Z,101041.00
2022-10-23T06:53:55.431Z,101039.00
2022-10-23T06:56:29.313Z,101051.00
2022-10-23T06:58:59.787Z,101040.00
2022-10-23T07:01:30.412Z,101053.00
2022-10-23T07:04:03.507Z,101057.00
2022-10-23T07:06:33.811Z,101055.00
2022-10-23T07:09:04.226Z,101058.00
2022-10-23T07:11:34.687Z,101048.00
2022-10-23T07:14:05.009Z,101064.00
2022-10-23T07:16:35.639Z,101063.00
2022-10-23T07:19:08.618Z,101064.00
2022-10-23T07:21:39.622Z,101058.00
2022-10-23T07:24:10.418Z,101061.00
2022-10-23T07:26:41.705Z,101055.00
2022-10-23T07:29:12.374Z,101051.00
2022-10-23T07:31:43.165Z,101054.00
2022-10-23T07:34:16.627Z,101065.00
2022-10-23T07:36:46.924Z,101065.00
2022-10-23T07:39:17.200Z,101063.00
2022-10-23T07:41:47.638Z,101057.00
2022-10-23T07:44:18.382Z,101048.00
2022-10-23T07:46:48.726Z,101054.00
2022-10-23T07:49:22.620Z,101055.00
2022-10-23T07:51:54.141Z,101069.00
2022-10-23T07:54:24.382Z,101069.00
2022-10-23T07:56:54.756Z,101064.00
2022-10-23T07:59:25.126Z,101058.00
2022-10-23T08:01:56.914Z,101056.00
2022-10-23T08:04:30.079Z,101056.00
2022-10-23T08:07:01.256Z,101058.00
2022-10-23T08:09:31.559Z,101053.00
2022-10-23T08:12:01.954Z,101056.00
2022-10-23T08:14:32.313Z,101057.00
2022-10-23T08:17:03.384Z,101062.00
2022-10-23T08:19:36.715Z,101063.00
2022-10-23T08:22:07.405Z,101058.00
2022-10-23T08:24:40.656Z,101059.00
2022-10-23T08:27:10.882Z,101064.00
2022-10-23T08:29:41.256Z,101056.00
2022-10-23T08:32:11.420Z,101052.00
2022-10-23T08:34:44.321Z,101054.00
2022-10-23T08:37:14.591Z,101057.00
2022-10-23T08:39:46.556Z,101057.00
2022-10-23T08:42:26.208Z,101057.00
2022-10-23T08:45:07.198Z,101050.00
2022-10-23T08:47:43.857Z,101063.00
2022-10-23T08:53:06.612Z,101055.00
2022-10-23T08:55:40.509Z,101049.00
2022-10-23T08:58:17.866Z,101050.00
2022-10-23T09:00:51.163Z,101052.00
2022-10-23T09:03:21.730Z,101042.00
2022-10-23T09:06:10.401Z,101043.00
2022-10-23T09:08:53.402Z,101053.00
2022-10-23T09:11:31.101Z,101054.00
2022-10-23T09:14:32.039Z,101046.00
2022-10-23T09:17:16.288Z,101052.00
2022-10-23T09:19:48.962Z,101047.00
2022-10-23T09:22:22.034Z,101056.00
2022-10-23T09:24:53.916Z,101054.00
2022-10-23T09:27:24.884Z,101044.00
2022-10-23T09:29:59.370Z,101049.00
2022-10-23T09:32:38.757Z,101044.00
2022-10-23T09:35:23.607Z,101044.00
2022-10-23T09:37:56.866Z,101052.00
2022-10-23T09:40:35.575Z,101046.00
2022-10-23T09:43:23.454Z,101042.00
2022-10-23T09:46:03.141Z,101036.00
2022-10-23T09:48:33.960Z,101045.00
2022-10-23T09:51:07.776Z,101042.00
2022-10-23T09:53:43.581Z,101042.00
2022-10-23T09:56:29.849Z,101043.00
2022-10-23T09:59:03.501Z,101039.00
2022-10-23T10:01:36.771Z,101036.00
2022-10-23T10:04:07.491Z,101038.00
2022-10-23T10:06:37.968Z,101039.00
2022-10-23T10:09:16.734Z,101037.00
2022-10-23T10:11:54.327Z,101030.00
2022-10-23T10:14:47.508Z,101035.00
2022-10-23T10:17:29.262Z,101028.00
2022-10-23T10:20:18.618Z,101024.00
2022-10-23T10:22:56.493Z,101022.00
2022-10-23T10:25:38.237Z,101015.00
2022-10-23T10:28:30.171Z,101011.00
2022-10-23T10:31:12.623Z,101018.00
2022-10-23T10:33:59.840Z,101007.00
2022-10-23T10:36:45.829Z,101003.00
2022-10-23T10:39:31.225Z,101001.00
2022-10-23T10:42:26.889Z,101000.00
2022-10-23T10:45:32.247Z,100994.00
2022-10-23T10:48:33.175Z,100989.00
2022-10-23T10:51:09.170Z,100992.00
2022-10-23T10:53:53.534Z,100982.00
2022-10-23T10:56:29.033Z,100991.00
2022-10-23T10:59:07.010Z,100986.00
2022-10-23T11:01:43.198Z,100985.00
2022-10-23T11:04:24.783Z,100986.00
2022-10-23T11:06:56.806Z,100980.00
2022-10-23T11:09:31.651Z,100990.00
2022-10-23T11:12:02.400Z,100987.00
2022-10-23T11:14:37.684Z,100981.00
2022-10-23T11:17:14.202Z,100967.00
2022-10-23T11:19:49.673Z,100964.00
2022-10-23T11:22:29.401Z,100957.00
2022-10-23T11:25:55.798Z,100962.00
2022-10-23T11:28:41.021Z,100963.00
2022-10-23T11:31:28.903Z,100952.00
2022-10-23T11:34:42.515Z,100950.00
2022-10-23T11:37:12.957Z,100947.00
2022-10-23T11:39:43.364Z,100945.00
2022-10-23T11:42:30.448Z,100928.00
2022-10-23T11:45:00.795Z,100927.00
2022-10-23T11:47:39.963Z,100921.00
2022-10-23T11:50:34.578Z,100921.00
2022-10-23T11:53:27.914Z,100921.00
2022-10-23T11:56:06.898Z,100913.00
2022-10-23T11:58:50.145Z,100908.00
2022-10-23T12:01:40.193Z,100907.00
2022-10-23T12:04:24.962Z,100906.00
2022-10-23T12:07:00.058Z,100903.00
2022-10-23T12:09:36.291Z,100900.00
2022-10-23T12:12:34.185Z,100897.00
2022-10-23T12:15:25.043Z,100896.00
2022-10-23T12:17:58.790Z,100889.00
2022-10-23T12:20:49.663Z,100883.00
2022-10-23T12:23:47.270Z,100879.00
2022-10-23T12:26:50.872Z,100875.00
2022-10-23T12:29:41.143Z,100880.00
2022-10-23T12:32:30.729Z,100879.00
2022-10-23T12:35:21.529Z,100874.00
2022-10-23T12:38:12.465Z,100862.00
2022-10-23T12:40:43.002Z,100866.00
2022-10-23T12:43:29.469Z,100868.00
2022-10-23T12:46:05.560Z,100864.00
2022-10-23T12:48:37.423Z,100865.00
2022-10-23T12:51:07.796Z,100861.00
2022-10-23T12:53:40.724Z,100860.00
2022-10-23T12:56:15.499Z,100856.00
2022-10-23T12:58:53.015Z,100856.00
2022-10-23T13:01:29.871Z,100850.00
2022-10-23T13:04:05.002Z,100838.00
2022-10-23T13:06:35.620Z,100848.00
2022-10-23T13:09:21.532Z,100844.00
2022-10-23T13:11:52.853Z,100820.00
2022-10-23T13:14:42.029Z,100825.00
2022-10-23T13:17:15.261Z,100827.00
2022-10-23T13:19:45.789Z,100822.00
2022-10-23T13:22:23.039Z,100818.00
2022-10-23T13:24:56.001Z,100813.00
2022-10-23T13:27:35.760Z,100817.00
2022-10-23T13:30:08.523Z,100810.00
2022-10-23T13:32:41.503Z,100806.00
2022-10-23T13:35:25.716Z,100798.00
2022-10-23T13:37:56.116Z,100800.00
2022-10-23T13:40:31.057Z,100802.00
2022-10-23T13:43:01.350Z,100813.00
2022-10-23T13:45:31.885Z,100805.00
2022-10-23T13:48:02.463Z,100797.00
2022-10-23T13:50:32.784Z,100797.00
2022-10-23T13:53:05.485Z,100789.00
2022-10-23T13:55:39.348Z,100791.00
2022-10-23T13:58:09.746Z,100790.00
2022-10-23T14:00:43.380Z,100788.00
2022-10-23T14:03:13.843Z,100791.00
2022-10-23T14:05:44.122Z,100782.00
2022-10-23T14:08:14.851Z,100793.00
2022-10-23T14:10:47.959Z,100786.00
2022-10-23T14:13:19.176Z,100784.00
2022-10-23T14:15:57.071Z,100782.00
2022-10-23T14:18:27.493Z,100774.00
2022-10-23T14:20:58.029Z,100782.00
2022-10-23T14:23:28.583Z,100771.00
2022-10-23T14:26:05.839Z,100777.00
2022-10-23T14:28:37.142Z,100767.00
2022-10-23T14:31:08.562Z,100778.00
2022-10-23T14:33:39.143Z,100769.00
2022-10-23T14:36:10.784Z,100765.00
2022-10-23T14:38:41.345Z,100771.00
2022-10-23T14:41:19.637Z,100769.00
2022-10-23T14:43:50.121Z,100761.00
2022-10-23T14:46:23.616Z,100757.00
2022-10-23T14:48:59.884Z,100765.00
2022-10-23T14:51:33.560Z,100758.00
2022-10-23T14:54:06.211Z,100753.00
2022-10-23T14:56:41.795Z,100742.00
2022-10-23T14:59:13.536Z,100741.00
2022-10-23T15:01:48.455Z,100751.00
2022-10-23T15:04:19.449Z,100749.00
2022-10-23T15:06:49.874Z,100740.00
2022-10-23T15:09:21.004Z,100735.00
2022-10-23T15:11:53.993Z,100729.00
2022-10-23T15:14:24.404Z,100730.00
2022-10-23T15:16:54.856Z,100733.00
2022-10-23T15:19:25.358Z,100731.00
2022-10-23T15:21:55.651Z,100728.00
2022-10-23T15:24:26.839Z,100716.00
2022-10-23T15:27:00.391Z,100723.00
2022-10-23T15:29:30.770Z,100720.00
2022-10-23T15:32:02.156Z,100710.00
2022-10-23T15:34:33.188Z,100705.00
2022-10-23T15:37:03.562Z,100716.00
2022-10-23T15:39:35.827Z,100709.00
2022-10-23T15:42:10.240Z,100710.00
2022-10-23T15:44:42.846Z,100699.00
2022-10-23T15:47:13.453Z,100698.00
2022-10-23T15:49:43.798Z,100689.00
2022-10-23T15:52:14.311Z,100689.00
2022-10-23T15:54:44.608Z,100689.00
2022-10-23T15:57:17.712Z,100692.00
2022-10-23T15:59:48.214Z,100680.00
2022-10-23T16:02:18.467Z,100681.00
2022-10-23T16:04:48.887Z,100676.00
2022-10-23T16:07:20.282Z,100676.00
2022-10-23T16:09:50.654Z,100672.00
2022-10-23T16:12:23.620Z,100674.00
2022-10-23T16:14:54.596Z,100677.00
2022-10-23T16:17:25.207Z,100676.00
2022-10-23T16:19:55.476Z,100670.00
2022-10-23T16:22:25.767Z,100678.00
2022-10-23T16:24:56.304Z,100676.00
2022-10-23T16:27:29.474Z,100672.00
2022-10-23T16:29:59.695Z,100667.00
2022-10-23T16:32:30.157Z,100662.00
2022-10-23T16:35:00.593Z,100672.00
2022-10-23T16:37:31.011Z,100667.00
2022-10-23T16:40:02.053Z,100670.00
2022-10-23T16:42:35.781Z,100659.00
2022-10-23T16:45:06.487Z,100655.00
2022-10-23T16:47:37.577Z,100655.00
2022-10-23T16:50:09.076Z,100650.00
2022-10-23T16:52:39.300Z,100647.00
2022-10-23T16:55:10.953Z,100649.00
2022-10-23T16:57:43.996Z,100644.00
2022-10-23T17:00:15.762Z,100636.00
2022-10-23T17:02:46.552Z,100630.00
2022-10-23T17:05:17.236Z,100635.00
2022-10-23T17:07:47.776Z,100621.00
2022-10-23T17:10:18.256Z,100620.00
2022-10-23T17:12:51.256Z,100619.00
2022-10-23T17:15:24.109Z,100620.00
2022-10-23T17:17:54.695Z,100619.00
2022-10-23T17:20:25.483Z,100614.00
2022-10-23T17:22:56.104Z,100615.00
2022-10-23T17:25:26.344Z,100611.00
2022-10-23T17:27:59.273Z,100600.00
2022-10-23T17:30:29.691Z,100600.00
2022-10-23T17:33:01.859Z,100591.00
2022-10-23T17:35:32.557Z,100600.00
2022-10-23T17:38:03.189Z,100587.00
2022-10-23T17:40:34.158Z,100587.00
2022-10-23T17:43:07.372Z,100586.00
2022-10-23T17:45:40.529Z,100576.00
2022-10-23T17:48:11.390Z,100573.00
2022-10-23T17:50:41.971Z,100568.00
2022-10-23T17:53:12.766Z,100564.00
2022-10-23T17:55:44.768Z,100563.00
2022-10-23T17:58:17.660Z,100571.00
2022-10-23T18:00:47.938Z,100579.00
2022-10-23T18:03:19.863Z,100580.00
2022-10-23T18:05:50.407Z,100582.00
2022-10-23T18:08:20.587Z,100565.00
2022-10-23T18:10:50.782Z,100563.00
2022-10-23T18:13:23.431Z,100561.00
2022-10-23T18:15:54.317Z,100558.00
2022-10-23T18:18:24.561Z,100550.00
2022-10-23T18:20:54.968Z,100565.00
2022-10-23T18:23:25.110Z,100570.00
2022-10-23T18:25:55.285Z,100549.00
2022-10-23T18:28:28.865Z,100538.00
2022-10-23T18:30:59.281Z,100525.00
2022-10-23T18:33:29.532Z,100528.00
2022-10-23T18:35:59.675Z,100520.00
2022-10-23T18:38:30.221Z,100520.00
2022-10-23T18:41:00.632Z,100526.00
2022-10-23T18:43:43.177Z,100520.00
2022-10-23T18:46:14.736Z,100511.00
2022-10-23T18:48:45.836Z,100509.00
2022-10-23T18:51:20.081Z,100518.00
2022-10-23T18:53:51.382Z,100522.00
2022-10-23T18:56:24.808Z,100518.00
2022-10-23T18:58:59.571Z,100526.00
2022-10-23T19:01:32.190Z,100521.00
2022-10-23T19:04:04.585Z,100516.00
2022-10-23T19:06:36.146Z,100520.00
2022-10-23T19:09:09.141Z,100523.00
2022-10-23T19:11:40.598Z,100509.00
2022-10-23T19:14:13.293Z,100510.00
2022-10-23T19:16:49.176Z,100501.00
2022-10-23T19:19:25.322Z,100501.00
2022-10-23T19:21:56.613Z,100497.00
2022-10-23T19:24:31.620Z,100512.00
2022-10-23T19:27:04.287Z,100503.00
2022-10-23T19:29:39.832Z,100501.00
2022-10-23T19:32:10.896Z,100511.00
2022-10-23T19:34:41.327Z,100499.00
2022-10-23T19:37:11.649Z,100499.00
2022-10-23T19:39:41.852Z,100509.00
2022-10-23T19:42:12.361Z,100506.00
2022-10-23T19:44:45.175Z,100496.00
2022-10-23T19:47:15.383Z,100487.00
2022-10-23T19:49:45.623Z,100485.00
2022-10-23T19:52:15.803Z,100479.00
2022-10-23T19:54:46.320Z,100468.00
2022-10-23T19:57:19.202Z,100457.00
2022-10-23T19:59:55.640Z,100449.00
2022-10-23T20:02:25.987Z,100459.00
2022-10-23T20:04:56.803Z,100454.00
2022-10-23T20:07:26.909Z,100477.00
2022-10-23T20:09:57.446Z,100476.00
2022-10-23T20:12:27.595Z,100481.00
2022-10-23T20:15:00.587Z,100486.00
2022-10-23T20:17:30.774Z,100491.00
2022-10-23T20:20:00.960Z,100487.00
2022-10-23T20:22:31.208Z,100487.00
2022-10-23T20:25:01.301Z,100492.00
2022-10-23T20:27:31.588Z,100480.00
2022-10-23T20:30:04.557Z,100480.00
2022-10-23T20:32:36.596Z,100476.00
2022-10-23T20:35:07.984Z,100477.00
2022-10-23T20:37:38.525Z,100479.00
2022-10-23T20:40:10.670Z,100475.00
2022-10-23T20:42:41.222Z,100473.00
2022-10-23T20:45:14.873Z,100469.00
2022-10-23T20:47:46.815Z,100467.00
2022-10-23T20:50:19.398Z,100464.00
2022-10-23T20:52:49.615Z,100454.00
2022-10-23T20:55:20.436Z,100459.00
2022-10-23T20:57:50.547Z,100467.00
2022-10-23T21:00:23.869Z,100451.00
2022-10-23T21:02:54.468Z,100457.00
2022-10-23T21:05:25.595Z,100464.00
2022-10-23T21:07:55.858Z,100464.00
2022-10-23T21:10:26.269Z,100468.00
2022-10-23T21:12:56.436Z,100459.00
2022-10-23T21:15:30.934Z,100453.00
2022-10-23T21:18:07.989Z,100441.00
2022-10-23T21:20:49.546Z,100440.00
2022-10-23T21:23:19.882Z,100445.00
2022-10-23T21:25:50.379Z,100431.00
2022-10-23T21:28:20.447Z,100444.00
2022-10-23T21:30:53.137Z,100437.00
2022-10-23T21:33:23.842Z,100438.00
2022-10-23T21:35:58.329Z,100433.00
2022-10-23T21:38:35.085Z,100433.00
2022-10-23T21:41:09.286Z,100443.00
2022-10-23T21:43:39.421Z,100444.00
2022-10-23T21:46:15.741Z,100445.00
2022-10-23T21:48:46.259Z,100434.00
2022-10-23T21:51:25.092Z,100435.00
2022-10-23T21:53:56.901Z,100444.00
2022-10-23T21:56:32.864Z,100462.00
2022-10-23T22:01:39.490Z,100473.00
2022-10-23T22:04:09.997Z,100474.00
2022-10-23T22:06:42.392Z,100483.00
2022-10-23T22:09:15.660Z,100484.00
2022-10-23T22:11:46.146Z,100472.00
2022-10-23T22:14:16.359Z,100477.00
2022-10-23T22:16:49.676Z,100460.00
2022-10-23T22:19:22.999Z,100457.00
2022-10-23T22:21:54.047Z,100458.00
2022-10-23T22:24:24.689Z,100450.00
2022-10-23T22:26:58.610Z,100452.00
2022-10-23T22:29:31.070Z,100457.00
2022-10-23T22:32:04.015Z,100466.00
2022-10-23T22:34:51.904Z,100473.00
2022-10-23T22:37:23.525Z,100470.00
2022-10-23T22:39:54.886Z,100474.00
2022-10-23T22:42:25.165Z,100479.00
2022-10-23T22:44:55.387Z,100477.00
2022-10-23T22:47:28.191Z,100476.00
2022-10-23T22:49:58.478Z,100476.00
2022-10-23T22:52:28.655Z,100479.00
2022-10-23T22:54:59.215Z,100470.00
2022-10-23T22:57:29.409Z,100475.00
2022-10-23T22:59:59.689Z,100479.00
2022-10-23T23:02:32.408Z,100478.00
2022-10-23T23:05:02.763Z,100474.00
2022-10-23T23:07:33.050Z,100472.00
2022-10-23T23:10:03.165Z,100478.00
2022-10-23T23:12:33.472Z,100480.00
2022-10-23T23:15:03.611Z,100478.00
2022-10-23T23:17:36.473Z,100487.00
2022-10-23T23:20:07.602Z,100489.00
2022-10-23T23:22:37.854Z,100472.00
2022-10-23T23:25:09.397Z,100463.00
2022-10-23T23:27:40.378Z,100464.00
2022-10-23T23:30:13.111Z,100457.00
2022-10-23T23:32:46.103Z,100457.00
2022-10-23T23:35:16.995Z,100457.00
2022-10-23T23:37:47.507Z,100456.00
2022-10-23T23:40:17.810Z,100458.00
2022-10-23T23:42:47.928Z,100447.00
2022-10-23T23:45:18.363Z,100442.00
2022-10-23T23:47:51.188Z,100427.00
2022-10-23T23:50:22.047Z,100417.00
2022-10-23T23:52:52.392Z,100416.00
2022-10-23T23:55:22.740Z,100421.00
2022-10-23T23:57:52.931Z,100416.00
